Time,TemperatureF,DewpointF,PressureIn,WindDirection,WindDirectionDegrees,WindSpeedMPH,WindSpeedGustMPH,Humidity,HourlyPrecipIn,Conditions,Clouds,dailyrainin,SoftwareType,DateUTC
2013-05-27 00:03:00,47.0,41.0,-100.00,WSW,242,0.0,6.0,81,0.00,,,-99.99,,2013-05-27 04:03:00,
2013-05-27 00:12:00,47.0,41.0,-100.00,West,266,0.0,6.0,82,0.00,,,-99.99,,2013-05-27 04:12:00,
2013-05-27 00:23:00,45.0,39.0,-100.00,SW,234,0.0,6.0,81,0.00,,,-99.99,,2013-05-27 04:23:00,
2013-05-27 00:33:00,45.0,39.0,-100.00,NE,38,0.0,6.0,84,0.00,,,-99.99,,2013-05-27 04:33:00,
2013-05-27 00:43:00,44.0,39.0,-100.00,WSW,241,0.0,6.0,86,0.00,,,-99.99,,2013-05-27 04:43:00,
2013-05-27 00:52:00,44.0,39.0,-100.00,SW,228,1.0,6.0,88,0.00,,,-99.99,,2013-05-27 04:52:00,
2013-05-27 01:02:00,44.0,39.0,-100.00,SW,221,1.0,6.0,88,0.00,,,-99.99,,2013-05-27 05:02:00,
2013-05-27 01:12:00,44.0,39.0,-100.00,West,264,0.0,6.0,88,0.00,,,-99.99,,2013-05-27 05:12:00,
2013-05-27 01:22:00,43.0,39.0,-100.00,WNW,303,0.0,6.0,89,0.00,,,-99.99,,2013-05-27 05:22:00,
2013-05-27 01:32:00,43.0,39.0,-100.00,SW,234,0.0,6.0,89,0.00,,,-99.99,,2013-05-27 05:32:00,
2013-05-27 01:42:00,43.0,39.0,-100.00,NNW,338,0.0,6.0,89,0.00,,,-99.99,,2013-05-27 05:42:00,
2013-05-27 01:52:00,43.0,39.0,-100.00,NW,317,0.0,6.0,90,0.00,,,-99.99,,2013-05-27 05:52:00,
2013-05-27 02:02:00,43.0,39.0,-100.00,SW,231,0.0,6.0,90,0.00,,,-99.99,,2013-05-27 06:02:00,
2013-05-27 02:11:00,43.0,39.0,-100.00,WSW,254,0.0,6.0,91,0.00,,,-99.99,,2013-05-27 06:11:00,
2013-05-27 02:22:00,42.0,39.0,-100.00,NW,312,0.0,6.0,91,0.00,,,-99.99,,2013-05-27 06:22:00,
2013-05-27 02:32:00,43.0,39.0,-100.00,West,264,0.0,6.0,91,0.00,,,-99.99,,2013-05-27 06:32:00,
2013-05-27 02:42:00,41.0,37.0,-100.00,NE,36,0.0,6.0,91,0.00,,,-99.99,,2013-05-27 06:42:00,
2013-05-27 02:52:00,41.0,37.0,-100.00,NNW,334,0.0,6.0,91,0.00,,,-99.99,,2013-05-27 06:52:00,
2013-05-27 03:02:00,42.0,39.0,-100.00,NW,316,0.0,6.0,93,0.00,,,-99.99,,2013-05-27 07:02:00,
2013-05-27 03:11:00,41.0,37.0,-100.00,NNE,31,0.0,6.0,91,0.00,,,-99.99,,2013-05-27 07:11:00,
2013-05-27 03:21:00,41.0,37.0,-100.00,NNW,337,0.0,6.0,93,0.00,,,-99.99,,2013-05-27 07:21:00,
2013-05-27 03:32:00,40.0,37.0,-100.00,NNW,330,0.0,6.0,93,0.00,,,-99.99,,2013-05-27 07:32:00,
2013-05-27 03:42:00,40.0,37.0,-100.00,South,189,0.0,6.0,93,0.00,,,-99.99,,2013-05-27 07:42:00,
2013-05-27 03:52:00,41.0,37.0,-100.00,WSW,256,0.0,6.0,93,0.00,,,-99.99,,2013-05-27 07:52:00,
2013-05-27 04:02:00,40.0,37.0,-100.00,WNW,303,0.0,6.0,94,0.00,,,-99.99,,2013-05-27 08:02:00,
2013-05-27 04:11:00,40.0,37.0,-100.00,NW,313,0.0,6.0,94,0.00,,,-99.99,,2013-05-27 08:11:00,
2013-05-27 04:22:00,40.0,37.0,-100.00,NNE,31,0.0,6.0,94,0.00,,,-99.99,,2013-05-27 08:22:00,
2013-05-27 04:33:00,41.0,39.0,-100.00,North,1,0.0,6.0,95,0.00,,,-99.99,,2013-05-27 08:33:00,
2013-05-27 04:42:00,41.0,39.0,-100.00,NNE,15,0.0,6.0,95,0.00,,,-99.99,,2013-05-27 08:42:00,
2013-05-27 04:52:00,42.0,39.0,-100.00,NE,50,1.0,6.0,95,0.00,,,-99.99,,2013-05-27 08:52:00,
2013-05-27 05:02:00,41.0,39.0,-100.00,North,7,1.0,6.0,95,0.00,,,-99.99,,2013-05-27 09:02:00,
2013-05-27 05:11:00,41.0,39.0,-100.00,ENE,59,1.0,6.0,95,0.00,,,-99.99,,2013-05-27 09:11:00,
2013-05-27 05:21:00,41.0,39.0,-100.00,WSW,244,0.0,6.0,95,0.00,,,-99.99,,2013-05-27 09:21:00,
2013-05-27 05:33:00,41.0,39.0,-100.00,WSW,238,0.0,6.0,95,0.00,,,-99.99,,2013-05-27 09:33:00,
2013-05-27 05:42:00,41.0,39.0,-100.00,NNE,25,0.0,6.0,94,0.00,,,-99.99,,2013-05-27 09:42:00,
2013-05-27 05:53:00,42.0,39.0,-100.00,NE,36,0.0,6.0,95,0.00,,,-99.99,,2013-05-27 09:53:00,
2013-05-27 06:03:00,41.0,39.0,-100.00,NE,40,0.0,6.0,95,0.00,,,-99.99,,2013-05-27 10:03:00,
2013-05-27 06:12:00,41.0,39.0,-100.00,ENE,57,0.0,6.0,95,0.00,,,-99.99,,2013-05-27 10:12:00,
2013-05-27 06:22:00,41.0,39.0,-100.00,North,9,0.0,6.0,97,0.00,,,-99.99,,2013-05-27 10:22:00,
2013-05-27 06:32:00,42.0,39.0,-100.00,NNW,337,0.0,6.0,95,0.00,,,-99.99,,2013-05-27 10:32:00,
2013-05-27 06:42:00,42.0,39.0,-100.00,NNE,14,1.0,6.0,95,0.00,,,-99.99,,2013-05-27 10:42:00,
2013-05-27 06:52:00,41.0,39.0,-100.00,NNE,12,1.0,6.0,95,0.00,,,-99.99,,2013-05-27 10:52:00,
2013-05-27 07:02:00,43.0,41.0,-100.00,NNE,12,1.0,6.0,95,0.00,,,-99.99,,2013-05-27 11:02:00,
2013-05-27 07:11:00,43.0,41.0,-100.00,North,7,1.0,6.0,94,0.00,,,-99.99,,2013-05-27 11:11:00,
2013-05-27 07:22:00,45.0,43.0,-100.00,North,354,0.0,1.0,93,0.00,,,-99.99,,2013-05-27 11:22:00,
2013-05-27 07:32:00,44.0,41.0,-100.00,North,2,0.0,1.0,91,0.00,,,-99.99,,2013-05-27 11:32:00,
2013-05-27 07:42:00,44.0,41.0,-100.00,North,11,0.0,1.0,90,0.00,,,-99.99,,2013-05-27 11:42:00,
2013-05-27 07:52:00,45.0,41.0,-100.00,NNE,31,1.0,1.0,89,0.00,,,-99.99,,2013-05-27 11:52:00,
2013-05-27 08:01:00,48.0,45.0,-100.00,NNE,14,0.0,1.0,88,0.00,,,-99.99,,2013-05-27 12:01:00,
2013-05-27 08:11:00,46.0,41.0,-100.00,NNE,22,0.0,1.0,86,0.00,,,-99.99,,2013-05-27 12:11:00,
2013-05-27 08:22:00,49.0,43.0,-100.00,North,2,1.0,2.0,85,0.00,,,-99.99,,2013-05-27 12:22:00,
2013-05-27 08:32:00,48.0,41.0,-100.00,North,360,1.0,2.0,81,0.00,,,-99.99,,2013-05-27 12:32:00,
2013-05-27 08:42:00,51.0,45.0,-100.00,NNE,14,1.0,2.0,81,0.00,,,-99.99,,2013-05-27 12:42:00,
2013-05-27 08:52:00,52.0,45.0,-100.00,North,357,1.0,2.0,78,0.00,,,-99.99,,2013-05-27 12:52:00,
2013-05-27 09:02:00,50.0,41.0,-100.00,East,91,1.0,2.0,76,0.00,,,-99.99,,2013-05-27 13:02:00,
2013-05-27 09:11:00,52.0,43.0,-100.00,NE,46,1.0,2.0,73,0.00,,,-99.99,,2013-05-27 13:11:00,
2013-05-27 09:22:00,52.0,41.0,-100.00,NW,309,0.0,2.0,69,0.00,,,-99.99,,2013-05-27 13:22:00,
2013-05-27 09:32:00,53.0,43.0,-100.00,NNW,343,1.0,2.0,69,0.00,,,-99.99,,2013-05-27 13:32:00,
2013-05-27 09:42:00,54.0,43.0,-100.00,NNW,347,0.0,2.0,68,0.00,,,-99.99,,2013-05-27 13:42:00,
2013-05-27 09:52:00,55.0,43.0,-100.00,ESE,108,0.0,2.0,66,0.00,,,-99.99,,2013-05-27 13:52:00,
2013-05-27 10:02:00,57.0,45.0,-100.00,North,7,1.0,2.0,64,0.00,,,-99.99,,2013-05-27 14:02:00,
2013-05-27 10:11:00,56.0,43.0,-100.00,NNE,12,2.0,2.0,62,0.00,,,-99.99,,2013-05-27 14:11:00,
2013-05-27 10:22:00,56.0,43.0,-100.00,NNW,344,1.0,2.0,64,0.00,,,-99.99,,2013-05-27 14:22:00,
2013-05-27 10:32:00,56.0,43.0,-100.00,NE,50,0.0,2.0,62,0.00,,,-99.99,,2013-05-27 14:32:00,
2013-05-27 10:42:00,58.0,45.0,-100.00,NNE,22,1.0,2.0,62,0.00,,,-99.99,,2013-05-27 14:42:00,
2013-05-27 10:52:00,58.0,45.0,-100.00,NE,55,1.0,2.0,62,0.00,,,-99.99,,2013-05-27 14:52:00,
2013-05-27 11:02:00,59.0,46.0,-100.00,SE,146,0.0,2.0,63,0.00,,,-99.99,,2013-05-27 15:02:00,
2013-05-27 11:11:00,57.0,41.0,-100.00,NNE,31,0.0,2.0,56,0.00,,,-99.99,,2013-05-27 15:11:00,
2013-05-27 11:21:00,59.0,43.0,-100.00,NNW,336,0.0,2.0,58,0.00,,,-99.99,,2013-05-27 15:21:00,
2013-05-27 11:33:00,57.0,41.0,-100.00,NNW,345,0.0,2.0,58,0.00,,,-99.99,,2013-05-27 15:33:00,
2013-05-27 11:43:00,58.0,43.0,-100.00,NNW,336,0.0,2.0,58,0.00,,,-99.99,,2013-05-27 15:43:00,
2013-05-27 11:53:00,58.0,45.0,-100.00,West,271,0.0,2.0,64,0.00,,,-99.99,,2013-05-27 15:53:00,
2013-05-27 12:03:00,59.0,46.0,-100.00,SW,223,0.0,2.0,63,4.53,,,-99.99,,2013-05-27 16:03:00,
2013-05-27 12:12:00,58.0,45.0,-100.00,SSW,208,0.0,2.0,64,3.39,,,-99.99,,2013-05-27 16:12:00,
2013-05-27 12:23:00,57.0,45.0,-100.00,NNW,336,0.0,2.0,67,3.39,,,-99.99,,2013-05-27 16:23:00,
2013-05-27 12:33:00,56.0,46.0,-100.00,SSW,208,0.0,2.0,71,0.55,,,-99.99,,2013-05-27 16:33:00,
2013-05-27 12:42:00,56.0,46.0,-100.00,NNE,21,0.0,2.0,72,0.55,,,-99.99,,2013-05-27 16:42:00,
2013-05-27 12:52:00,58.0,48.0,-100.00,NNW,343,0.0,2.0,73,0.00,,,-99.99,,2013-05-27 16:52:00,
2013-05-27 13:02:00,58.0,50.0,-100.00,WSW,251,0.0,2.0,75,0.00,,,-99.99,,2013-05-27 17:02:00,
2013-05-27 13:12:00,60.0,50.0,-100.00,WNW,295,0.0,2.0,72,0.00,,,-99.99,,2013-05-27 17:12:00,
2013-05-27 13:22:00,61.0,50.0,-100.00,NW,314,0.0,2.0,68,0.00,,,-99.99,,2013-05-27 17:22:00,
2013-05-27 13:32:00,62.0,50.0,-100.00,WSW,256,0.0,2.0,68,0.00,,,-99.99,,2013-05-27 17:32:00,
2013-05-27 13:43:00,62.0,50.0,-100.00,SE,144,0.0,2.0,68,0.00,,,-99.99,,2013-05-27 17:43:00,
2013-05-27 13:52:00,61.0,48.0,-100.00,NE,48,1.0,2.0,66,0.00,,,-99.99,,2013-05-27 17:52:00,
2013-05-27 14:02:00,62.0,50.0,-100.00,WNW,303,0.0,2.0,66,0.00,,,-99.99,,2013-05-27 18:02:00,
2013-05-27 14:11:00,62.0,50.0,-100.00,ENE,70,1.0,2.0,66,11.34,,,-99.99,,2013-05-27 18:11:00,
2013-05-27 14:22:00,61.0,50.0,-100.00,North,354,0.0,2.0,69,0.00,,,-99.99,,2013-05-27 18:22:00,
2013-05-27 14:32:00,60.0,48.0,-100.00,North,4,1.0,2.0,68,0.00,,,-99.99,,2013-05-27 18:32:00,
2013-05-27 14:42:00,62.0,50.0,-100.00,ENE,62,1.0,2.0,67,0.00,,,-99.99,,2013-05-27 18:42:00,
2013-05-27 14:52:00,62.0,50.0,-100.00,West,265,1.0,2.0,67,0.00,,,-99.99,,2013-05-27 18:52:00,
2013-05-27 15:01:00,60.0,46.0,-100.00,NE,38,1.0,2.0,62,0.00,,,-99.99,,2013-05-27 19:01:00,
2013-05-27 15:11:00,62.0,46.0,-100.00,North,357,0.0,2.0,59,0.00,,,-99.99,,2013-05-27 19:11:00,
2013-05-27 15:22:00,62.0,46.0,-100.00,WNW,292,1.0,2.0,58,0.00,,,-99.99,,2013-05-27 19:22:00,
2013-05-27 15:32:00,62.0,45.0,-100.00,NNE,28,1.0,2.0,56,0.00,,,-99.99,,2013-05-27 19:32:00,
2013-05-27 15:42:00,63.0,45.0,-100.00,NNE,14,1.0,2.0,55,0.00,,,-99.99,,2013-05-27 19:42:00,
2013-05-27 15:52:00,62.0,45.0,-100.00,NE,39,1.0,2.0,56,0.00,,,-99.99,,2013-05-27 19:52:00,
2013-05-27 16:02:00,62.0,45.0,-100.00,NNW,331,1.0,2.0,55,0.00,,,-99.99,,2013-05-27 20:02:00,
2013-05-27 16:11:00,63.0,46.0,-100.00,North,360,0.0,2.0,55,0.00,,,-99.99,,2013-05-27 20:11:00,
2013-05-27 16:22:00,62.0,46.0,-100.00,West,275,1.0,2.0,59,0.00,,,-99.99,,2013-05-27 20:22:00,
2013-05-27 16:32:00,62.0,46.0,-100.00,NNE,16,1.0,2.0,60,0.00,,,-99.99,,2013-05-27 20:32:00,
2013-05-27 16:42:00,62.0,46.0,-100.00,NNE,33,1.0,2.0,59,0.00,,,-99.99,,2013-05-27 20:42:00,
2013-05-27 16:52:00,63.0,48.0,-100.00,NW,312,0.0,2.0,60,0.00,,,-99.99,,2013-05-27 20:52:00,
2013-05-27 17:01:00,63.0,48.0,-100.00,ENE,77,1.0,2.0,60,0.00,,,-99.99,,2013-05-27 21:01:00,
2013-05-27 17:12:00,64.0,50.0,-100.00,North,5,1.0,2.0,62,0.00,,,-99.99,,2013-05-27 21:12:00,
2013-05-27 17:21:00,64.0,50.0,-100.00,ESE,108,1.0,2.0,63,0.00,,,-99.99,,2013-05-27 21:21:00,
2013-05-27 17:33:00,62.0,46.0,-100.00,North,358,1.0,2.0,59,0.00,,,-99.99,,2013-05-27 21:33:00,
2013-05-27 17:43:00,62.0,46.0,-100.00,ENE,60,1.0,2.0,59,0.00,,,-99.99,,2013-05-27 21:43:00,
2013-05-27 17:53:00,63.0,48.0,-100.00,ENE,66,1.0,2.0,60,0.00,,,-99.99,,2013-05-27 21:53:00,
2013-05-27 18:02:00,64.0,48.0,-100.00,NNE,21,2.0,2.0,59,0.00,,,-99.99,,2013-05-27 22:02:00,
2013-05-27 18:13:00,64.0,48.0,-100.00,NE,50,2.0,4.0,60,0.00,,,-99.99,,2013-05-27 22:13:00,
2013-05-27 18:22:00,62.0,46.0,-100.00,NNW,341,2.0,4.0,60,0.00,,,-99.99,,2013-05-27 22:22:00,
2013-05-27 18:33:00,62.0,46.0,-100.00,NNE,25,1.0,4.0,59,0.00,,,-99.99,,2013-05-27 22:33:00,
2013-05-27 18:42:00,64.0,48.0,-100.00,NNW,327,1.0,4.0,60,0.00,,,-99.99,,2013-05-27 22:42:00,
2013-05-27 18:52:00,64.0,50.0,-100.00,North,360,1.0,4.0,63,0.00,,,-99.99,,2013-05-27 22:52:00,
2013-05-27 19:02:00,64.0,50.0,-100.00,ENE,66,2.0,4.0,64,0.00,,,-99.99,,2013-05-27 23:02:00,
2013-05-27 19:12:00,62.0,46.0,-100.00,North,5,2.0,4.0,60,0.00,,,-99.99,,2013-05-27 23:12:00,
2013-05-27 19:22:00,62.0,48.0,-100.00,NE,56,2.0,4.0,62,0.00,,,-99.99,,2013-05-27 23:22:00,
2013-05-27 19:32:00,63.0,48.0,-100.00,NE,35,1.0,4.0,62,0.00,,,-99.99,,2013-05-27 23:32:00,
2013-05-27 19:42:00,63.0,48.0,-100.00,ENE,62,1.0,4.0,63,0.00,,,-99.99,,2013-05-27 23:42:00,
2013-05-27 19:52:00,63.0,50.0,-100.00,ENE,64,1.0,4.0,66,0.00,,,-99.99,,2013-05-27 23:52:00,
2013-05-27 20:01:00,62.0,48.0,-100.00,NE,52,1.0,4.0,64,0.00,,,-99.99,,2013-05-28 00:01:00,
2013-05-27 20:11:00,62.0,50.0,-100.00,NNW,343,1.0,4.0,66,0.00,,,-99.99,,2013-05-28 00:11:00,
2013-05-27 20:21:00,62.0,48.0,-100.00,NNE,33,1.0,4.0,64,0.00,,,-99.99,,2013-05-28 00:21:00,
2013-05-27 20:32:00,62.0,50.0,-100.00,ENE,73,2.0,4.0,66,0.00,,,-99.99,,2013-05-28 00:32:00,
2013-05-27 20:42:00,62.0,50.0,-100.00,NE,46,2.0,4.0,67,0.00,,,-99.99,,2013-05-28 00:42:00,
2013-05-27 20:52:00,62.0,50.0,-100.00,North,2,1.0,4.0,67,0.00,,,-99.99,,2013-05-28 00:52:00,
2013-05-27 21:01:00,62.0,50.0,-100.00,NNE,21,1.0,4.0,67,0.00,,,-99.99,,2013-05-28 01:01:00,
2013-05-27 21:11:00,62.0,50.0,-100.00,NE,50,2.0,4.0,68,0.00,,,-99.99,,2013-05-28 01:11:00,
2013-05-27 21:22:00,61.0,50.0,-100.00,NE,35,2.0,4.0,68,0.00,,,-99.99,,2013-05-28 01:22:00,
2013-05-27 21:32:00,61.0,50.0,-100.00,NNE,33,1.0,4.0,69,0.00,,,-99.99,,2013-05-28 01:32:00,
2013-05-27 21:42:00,61.0,50.0,-100.00,North,360,2.0,4.0,68,0.00,,,-99.99,,2013-05-28 01:42:00,
2013-05-27 21:52:00,61.0,50.0,-100.00,WNW,292,1.0,4.0,69,0.00,,,-99.99,,2013-05-28 01:52:00,
2013-05-27 22:02:00,61.0,50.0,-100.00,NNE,18,1.0,4.0,71,0.00,,,-99.99,,2013-05-28 02:02:00,
2013-05-27 22:11:00,61.0,50.0,-100.00,North,11,1.0,4.0,69,0.00,,,-99.99,,2013-05-28 02:11:00,
2013-05-27 22:22:00,59.0,46.0,-100.00,NNW,345,2.0,4.0,67,0.00,,,-99.99,,2013-05-28 02:22:00,
2013-05-27 22:32:00,61.0,48.0,-100.00,North,351,0.0,4.0,68,0.00,,,-99.99,,2013-05-28 02:32:00,
2013-05-27 22:42:00,61.0,50.0,-100.00,NNE,32,1.0,4.0,69,0.00,,,-99.99,,2013-05-28 02:42:00,
2013-05-27 22:52:00,61.0,48.0,-100.00,NE,55,1.0,4.0,68,0.00,,,-99.99,,2013-05-28 02:52:00,
2013-05-27 23:01:00,61.0,48.0,-100.00,WSW,256,0.0,4.0,67,0.00,,,-99.99,,2013-05-28 03:01:00,
2013-05-27 23:11:00,61.0,48.0,-100.00,NNE,14,1.0,4.0,66,1.14,,,-99.99,,2013-05-28 03:11:00,
2013-05-27 23:21:00,61.0,50.0,-100.00,NNE,15,0.0,4.0,68,7.95,,,-99.99,,2013-05-28 03:21:00,
2013-05-27 23:33:00,59.0,50.0,-100.00,West,272,0.0,4.0,75,0.00,,,-99.99,,2013-05-28 03:33:00,
2013-05-27 23:43:00,59.0,50.0,-100.00,West,272,0.0,4.0,75,0.00,,,-99.99,,2013-05-28 03:43:00,
2013-05-27 23:53:00,58.0,52.0,-100.00,SSE,153,0.0,4.0,82,0.00,,,-99.99,,2013-05-28 03:53:00,